Tropical Cyclones
[Index]
Main Index Home Page Stock Weather Photos Extreme Storms Discussion Storm News and Storm Chasing Reports Tropical Cyclones / Hurricanes / Typhoons Weather Data and Links Wild Fires / Bushfires Weather Observation Techniques Weather Picture Catalogue Tornado Pictures and Reports Stock Video Footage and DVDs for sale
Season 1990-1991 Tropical Cyclone MARIAN Track Map
Season 1990-1991 Summaries: [BoM-AU] [JTWC-AU] [JTWC-SIO] [JTWC-SPAC] [JTWC-SH]
<<- Previous TC | BoM 1990-1991 Season | Next TC ->>

click for intensity scale information  Lat/long Grid: Show Hide

 Date Labels: Show Hide

Bureau of Meteorology Tropical Cyclone Data

Name: MARIAN
Number: 740 / 199091_08

09 Apr 1991 00:00 UTC to 19 Apr 1991 00:00 UTC

    date/time    lat    long    hPa   cat  kts
1991-04-09 00    8.8   130.0   1004         25          
1991-04-09 06    8.9   129.4   1004         25          
1991-04-09 12    8.9   128.8   1004         25          
1991-04-09 18    9.0   128.2   1002         27          
1991-04-10 00    9.3   127.6   1000         31          
1991-04-10 06    9.6   127.1    998         35          
1991-04-10 12    9.9   126.6    996         37          
1991-04-10 18   10.3   126.0    991    1    45          
1991-04-11 00   10.6   125.5    985    2    54          
1991-04-11 06   11.0   124.9    978    2    64          
1991-04-11 12   11.3   124.3    970    3    74          
1991-04-11 18   11.6   123.6    962    3    82          
1991-04-12 00   11.9   123.0    955    4    89          
1991-04-12 06   12.5   122.0    950    4    95          
1991-04-12 12   12.9   121.2    945    4    99          
1991-04-12 18   13.1   120.4    935    4    109          
1991-04-13 00   13.4   120.2    930    4    113          
1991-04-13 06   13.9   119.9    935    4    109          
1991-04-13 12   14.1   119.7    935    4    109          
1991-04-13 18   14.0   119.6    940    4    103          
1991-04-14 00   13.8   119.5    940    4    103          
1991-04-14 06   13.8   119.5    945    4    99          
1991-04-14 12   13.6   119.8    945    4    99          
1991-04-14 18   13.5   119.8    950    4    95          
1991-04-15 00   13.7   120.1    955    4    89          
1991-04-15 06   13.6   120.1    962    3    82          
1991-04-15 12   13.1   120.1    970    3    74          
1991-04-15 18   13.4   119.1    980    2    60          
1991-04-16 00   14.1   118.0    990    1    47          
1991-04-16 06   14.6   116.8    995    1    39          
1991-04-16 12   14.8   115.6    995    1    39          
1991-04-16 18   14.2   114.2    995    1    39          
1991-04-17 00   14.5   113.8    995    1    39          
1991-04-17 06   15.2   113.0    995    1    39          
1991-04-17 12   16.0   112.1    997         35          
1991-04-17 18   16.8   111.2    998         35          
1991-04-18 00   17.7   110.4    998         35          
1991-04-18 06   18.5   109.8    998         35          
1991-04-18 12   19.4   109.3    998         35          
1991-04-18 18   20.3   108.8   1000         31          
1991-04-19 00   21.2   108.3   1002         27          
Winds are 10-min average.

Tropical cyclone tracks developed by Michael Bath using data from the Bureau of Meteorology and Google Maps.


[Australian Severe Weather index] [Copyright Notice] [Email Contacts] [Search This Site] [Privacy Policy]
Document: tropical_cyclone_marian.htm Updated: 30 May 2013